Time;durP1;ratioP1;P1;durP2;ratioP2;P2;SDS_P1;SDS_P2;PMS_P1;PMS_P2;Temp;Humidity;BMP_temperature;BMP_pressure;BME280_temperature;BME280_humidity;BME280_pressure;Samples;Min_cycle;Max_cycle;Signal;HPM_P1;HPM_P2
2023/04/18 00:01:08;;;;;;;14.40;8.20;;;8.20;84.10;;;;;;6158937;23;20496;-79
2023/04/18 00:03:37;;;;;;;22.80;8.80;;;8.20;83.40;;;;;;6182215;23;20444;-79
2023/04/18 00:06:09;;;;;;;16.40;8.53;;;8.10;84.10;;;;;;6184874;23;20913;-79
2023/04/18 00:08:39;;;;;;;18.33;9.20;;;8.00;83.60;;;;;;6158565;23;20424;-79
2023/04/18 00:11:12;;;;;;;17.73;7.97;;;8.00;83.30;;;;;;6185294;23;20420;-79
2023/04/18 00:13:41;;;;;;;12.93;6.10;;;8.00;82.10;;;;;;6184471;23;20937;-79
2023/04/18 00:16:08;;;;;;;14.30;8.70;;;8.00;82.00;;;;;;6184797;23;20762;-79
2023/04/18 00:18:38;;;;;;;12.53;7.10;;;8.00;81.70;;;;;;6183907;23;20427;-79
2023/04/18 00:21:12;;;;;;;16.37;7.67;;;8.00;82.00;;;;;;6185268;23;20413;-79
2023/04/18 00:23:40;;;;;;;12.87;6.23;;;7.90;79.60;;;;;;6184612;23;20440;-79
2023/04/18 00:26:09;;;;;;;17.80;7.97;;;8.00;79.70;;;;;;6184509;23;20463;-79
2023/04/18 00:28:36;;;;;;;16.53;8.23;;;7.80;79.40;;;;;;6194317;23;20479;-79
2023/04/18 00:31:05;;;;;;;16.57;8.80;;;7.60;80.00;;;;;;6184586;23;20452;-79
2023/04/18 00:33:35;;;;;;;15.53;8.73;;;7.50;80.80;;;;;;6184142;23;20513;-79
2023/04/18 00:36:42;;;;;;;12.70;7.27;;;7.30;83.30;;;;;;6184928;23;20437;-79
2023/04/18 00:39:09;;;;;;;14.27;8.37;;;7.20;83.30;;;;;;6159016;23;20416;-79
2023/04/18 00:41:38;;;;;;;18.23;8.57;;;7.10;84.00;;;;;;6183275;23;20409;-79
2023/04/18 00:44:09;;;;;;;14.43;8.23;;;6.90;84.10;;;;;;6184335;23;20432;-79
2023/04/18 00:46:40;;;;;;;17.10;10.23;;;6.80;84.40;;;;;;6159254;23;20393;-79
2023/04/18 00:49:17;;;;;;;16.93;7.30;;;6.70;85.20;;;;;;6184812;23;20393;-79
2023/04/18 00:51:55;;;;;;;17.27;8.87;;;6.60;86.40;;;;;;6184564;23;20396;-79
2023/04/18 00:54:24;;;;;;;12.80;8.13;;;6.40;87.40;;;;;;6183957;23;20507;-79
2023/04/18 00:56:51;;;;;;;12.17;6.30;;;6.40;87.40;;;;;;6157925;23;20433;-79
2023/04/18 00:59:23;;;;;;;17.17;8.10;;;6.40;87.90;;;;;;6184713;23;20556;-79
2023/04/18 01:01:52;;;;;;;11.90;7.40;;;6.40;87.70;;;;;;6157974;23;21040;-79
2023/04/18 01:04:29;;;;;;;12.47;6.10;;;6.40;88.00;;;;;;6184593;23;20461;-79
2023/04/18 01:07:10;;;;;;;16.23;7.40;;;6.50;87.30;;;;;;6184334;23;20393;-79
2023/04/18 01:09:40;;;;;;;12.10;7.20;;;6.50;87.40;;;;;;6184571;23;20396;-79
2023/04/18 01:12:09;;;;;;;9.83;5.60;;;6.60;86.40;;;;;;6184172;23;20889;-79
2023/04/18 01:14:40;;;;;;;12.10;7.43;;;6.70;85.50;;;;;;6184453;23;20437;-79
2023/04/18 01:17:12;;;;;;;16.27;8.10;;;6.70;85.60;;;;;;6184317;23;20425;-79
2023/04/18 01:19:43;;;;;;;16.70;7.63;;;6.70;86.20;;;;;;6184652;23;20436;-78
2023/04/18 01:22:13;;;;;;;13.70;8.07;;;6.70;86.50;;;;;;6183960;23;20413;-79
2023/04/18 01:24:57;;;;;;;12.63;6.93;;;6.70;85.80;;;;;;6157809;23;20778;-79
2023/04/18 01:27:35;;;;;;;20.50;9.20;;;6.70;86.40;;;;;;6183927;23;20399;-79
2023/04/18 01:30:09;;;;;;;22.70;9.10;;;6.50;88.30;;;;;;6154243;23;20457;-79
2023/04/18 01:35:25;;;;;;;16.53;8.27;;;5.90;90.90;;;;;;6152055;23;20414;-79
2023/04/18 01:37:54;;;;;;;17.87;9.37;;;5.70;92.40;;;;;;6154436;23;20446;-78
2023/04/18 01:40:29;;;;;;;17.03;9.80;;;5.40;93.60;;;;;;6154593;23;20422;-78
2023/04/18 01:42:59;;;;;;;18.80;10.17;;;5.40;94.10;;;;;;6162578;23;20428;-79
2023/04/18 01:45:26;;;;;;;39.87;12.33;;;5.20;96.20;;;;;;6154501;23;20484;-79
2023/04/18 01:48:25;;;;;;;15.90;10.50;;;4.90;96.70;;;;;;6154458;23;20416;-79
2023/04/18 01:53:59;;;;;;;29.93;25.77;;;4.60;99.70;;;;;;6153968;23;20996;-79
2023/04/18 01:56:30;;;;;;;81.70;77.33;;;4.40;99.90;;;;;;6152866;23;20433;-79
2023/04/18 01:58:59;;;;;;;142.30;136.27;;;4.40;99.90;;;;;;6154479;23;20505;-78
2023/04/18 02:01:28;;;;;;;86.37;81.73;;;4.30;99.90;;;;;;6153529;23;20442;-79
2023/04/18 02:03:55;;;;;;;23.20;21.37;;;4.30;99.90;;;;;;6153893;23;20512;-78
2023/04/18 02:06:22;;;;;;;13.70;9.33;;;4.20;99.90;;;;;;6154326;23;20413;-79
2023/04/18 02:08:50;;;;;;;12.17;6.33;;;4.30;99.90;;;;;;6154313;23;20420;-79
2023/04/18 02:11:17;;;;;;;14.33;6.87;;;4.70;99.90;;;;;;6153804;23;20420;-78
2023/04/18 02:16:52;;;;;;;21.37;8.90;;;4.80;99.90;;;;;;5105075;27;20625;-78
2023/04/18 02:19:21;;;;;;;15.93;9.27;;;5.30;99.90;;;;;;5089232;28;20537;-78
2023/04/18 02:21:59;;;;;;;18.13;9.33;;;5.30;99.90;;;;;;5089505;28;20519;-78
2023/04/18 02:24:39;;;;;;;16.43;10.03;;;5.10;99.90;;;;;;5089240;28;20469;-78
2023/04/18 02:27:09;;;;;;;22.80;13.63;;;5.00;99.90;;;;;;5089097;28;20458;-78
2023/04/18 02:29:38;;;;;;;15.63;10.50;;;4.80;99.90;;;;;;5089515;28;20450;-78
2023/04/18 02:32:07;;;;;;;20.63;10.60;;;4.90;99.90;;;;;;5087849;28;20962;-80
2023/04/18 02:34:43;;;;;;;21.70;11.70;;;5.00;99.90;;;;;;5088875;28;20599;-80
2023/04/18 02:37:10;;;;;;;20.90;15.50;;;5.00;99.90;;;;;;5088889;28;20460;-80
2023/04/18 02:39:37;;;;;;;34.53;31.53;;;4.90;99.90;;;;;;5088838;28;20460;-80
2023/04/18 02:42:16;;;;;;;68.53;64.80;;;4.60;99.90;;;;;;5088861;28;20976;-80
2023/04/18 02:44:48;;;;;;;85.73;81.43;;;4.40;99.90;;;;;;5088865;28;21003;-80
2023/04/18 02:47:16;;;;;;;86.40;82.30;;;4.30;99.90;;;;;;5088969;28;20871;-80
2023/04/18 02:49:46;;;;;;;45.27;42.20;;;4.20;99.90;;;;;;5089129;28;20454;-80
2023/04/18 02:52:14;;;;;;;37.53;34.83;;;4.10;99.90;;;;;;5088872;28;20811;-78
2023/04/18 02:55:09;;;;;;;87.90;83.33;;;4.00;99.90;;;;;;5088441;28;20485;-78
2023/04/18 02:57:36;;;;;;;32.00;29.63;;;4.00;99.90;;;;;;5074391;28;20454;-78
2023/04/18 03:00:07;;;;;;;20.90;18.83;;;4.00;99.90;;;;;;5085850;28;20488;-80
2023/04/18 03:02:35;;;;;;;24.23;21.90;;;4.00;99.90;;;;;;5087799;28;20478;-80
2023/04/18 03:05:03;;;;;;;126.10;120.57;;;4.00;99.90;;;;;;5087202;28;20455;-80
2023/04/18 03:07:58;;;;;;;313.60;302.17;;;3.90;99.90;;;;;;5087986;28;20453;-80
2023/04/18 03:10:30;;;;;;;391.00;376.23;;;3.90;99.90;;;;;;5087089;28;20978;-80
2023/04/18 03:12:57;;;;;;;391.17;376.87;;;3.90;99.90;;;;;;5088111;28;20510;-80
2023/04/18 03:15:32;;;;;;;282.73;272.53;;;3.90;99.90;;;;;;5088210;28;20516;-80
2023/04/18 03:18:02;;;;;;;82.33;77.60;;;4.00;99.90;;;;;;5088174;28;20453;-80
2023/04/18 03:20:32;;;;;;;26.07;22.67;;;4.10;99.90;;;;;;5088197;28;20485;-80
2023/04/18 03:23:08;;;;;;;35.93;23.17;;;4.20;99.90;;;;;;5085399;28;20470;-80
2023/04/18 03:25:42;;;;;;;86.77;82.43;;;4.30;99.90;;;;;;5088078;28;20537;-80
2023/04/18 03:28:10;;;;;;;13.80;10.30;;;4.30;99.90;;;;;;5074078;28;20540;-79
2023/04/18 03:30:57;;;;;;;18.63;16.70;;;4.50;99.90;;;;;;5074612;28;20990;-79
2023/04/18 03:33:41;;;;;;;18.40;16.40;;;4.40;99.90;;;;;;5074332;28;20477;-79
2023/04/18 03:36:10;;;;;;;18.63;15.13;;;4.40;99.90;;;;;;5074273;28;20477;-79
2023/04/18 03:38:39;;;;;;;21.33;19.27;;;4.50;99.90;;;;;;5073162;28;20461;-79
2023/04/18 03:41:06;;;;;;;143.50;137.87;;;4.60;99.90;;;;;;5074126;28;20450;-80
2023/04/18 03:43:35;;;;;;;54.47;51.60;;;4.40;99.90;;;;;;5073563;28;20513;-79
2023/04/18 03:46:08;;;;;;;274.13;264.33;;;4.40;99.90;;;;;;5072773;28;20530;-80
2023/04/18 03:51:19;;;;;;;492.17;474.00;;;4.40;99.90;;;;;;5072377;28;20973;-79
2023/04/18 03:53:47;;;;;;;646.03;617.50;;;4.30;99.90;;;;;;5074069;28;20458;-80
2023/04/18 03:56:16;;;;;;;728.97;692.90;;;4.10;99.90;;;;;;5074060;28;20478;-80
2023/04/18 03:58:59;;;;;;;705.17;670.37;;;4.00;99.90;;;;;;5072577;28;20494;-80
2023/04/18 04:04:41;;;;;;;737.23;698.87;;;4.00;99.90;;;;;;5069689;28;20470;-79
2023/04/18 04:07:30;;;;;;;760.87;720.13;;;3.90;99.90;;;;;;5072836;28;20457;-80
2023/04/18 04:10:03;;;;;;;655.43;624.33;;;3.80;99.90;;;;;;5072420;28;20454;-80
2023/04/18 04:12:30;;;;;;;765.73;724.07;;;3.90;99.90;;;;;;5073772;28;20542;-78
2023/04/18 04:15:11;;;;;;;826.33;777.00;;;3.80;99.90;;;;;;5073658;28;20474;-78
2023/04/18 04:17:39;;;;;;;702.27;666.50;;;3.70;99.90;;;;;;5073465;28;20829;-80
2023/04/18 04:26:16;;;;;;;748.73;707.40;;;3.70;99.90;;;;;;5060804;22;20472;-80
2023/04/18 04:28:45;;;;;;;784.03;739.67;;;3.70;99.90;;;;;;5053471;28;20447;-80
2023/04/18 04:31:12;;;;;;;806.57;758.60;;;3.60;99.90;;;;;;5053425;28;20455;-80
2023/04/18 04:36:26;;;;;;;683.27;647.17;;;3.70;99.90;;;;;;5048346;28;20483;-80
2023/04/18 04:38:57;;;;;;;799.53;751.50;;;3.70;99.90;;;;;;5051007;28;20455;-80
2023/04/18 04:42:06;;;;;;;808.67;760.50;;;3.70;99.90;;;;;;5050740;28;20461;-80
2023/04/18 04:44:36;;;;;;;644.13;611.87;;;3.60;99.90;;;;;;5053155;28;20478;-79
2023/04/18 04:47:03;;;;;;;743.60;702.00;;;3.80;99.90;;;;;;5052986;28;20878;-80
2023/04/18 04:49:32;;;;;;;796.90;749.70;;;3.70;99.90;;;;;;5053120;28;20853;-80
2023/04/18 04:51:59;;;;;;;852.00;794.20;;;3.70;99.90;;;;;;5052890;28;20546;-80
2023/04/18 04:54:30;;;;;;;857.57;796.90;;;3.70;99.90;;;;;;5053052;28;20990;-80
2023/04/18 04:57:00;;;;;;;862.37;799.60;;;3.70;99.90;;;;;;5052691;28;20846;-81
2023/04/18 04:59:28;;;;;;;874.77;811.20;;;3.60;99.90;;;;;;5052900;28;20508;-80
2023/04/18 05:01:56;;;;;;;887.10;817.50;;;3.60;99.90;;;;;;5051330;28;20459;-80
2023/04/18 05:04:24;;;;;;;869.53;801.47;;;3.70;99.90;;;;;;5051146;28;20471;-81
2023/04/18 05:06:55;;;;;;;880.07;811.13;;;3.60;99.90;;;;;;5052716;28;20454;-81
2023/04/18 05:09:21;;;;;;;883.83;811.37;;;3.70;99.90;;;;;;5052806;28;20545;-81
2023/04/18 05:11:50;;;;;;;880.17;806.50;;;3.80;99.90;;;;;;5052514;28;20833;-80
2023/04/18 05:14:19;;;;;;;866.87;793.00;;;4.00;99.90;;;;;;5052397;28;20486;-80
2023/04/18 05:16:46;;;;;;;870.67;797.87;;;4.20;99.90;;;;;;5052218;28;20533;-80
2023/04/18 05:19:15;;;;;;;855.90;787.43;;;4.50;99.90;;;;;;5051060;28;20455;-79
2023/04/18 05:21:42;;;;;;;854.47;788.10;;;4.70;99.90;;;;;;5051114;28;20839;-79
2023/04/18 05:24:13;;;;;;;861.17;795.00;;;4.90;99.90;;;;;;5052090;28;20472;-78
2023/04/18 05:26:40;;;;;;;858.67;794.17;;;5.00;99.90;;;;;;5051095;28;20447;-81
2023/04/18 05:29:08;;;;;;;841.03;779.93;;;5.30;99.90;;;;;;5052003;28;20455;-79
2023/04/18 05:31:35;;;;;;;819.60;760.60;;;5.40;99.90;;;;;;5050262;28;20532;-78
2023/04/18 05:34:02;;;;;;;802.67;747.90;;;5.60;99.90;;;;;;5051436;28;20526;-78
2023/04/18 05:36:29;;;;;;;767.90;718.80;;;5.70;99.90;;;;;;5052084;28;20486;-78
2023/04/18 05:38:56;;;;;;;744.97;699.20;;;5.90;99.90;;;;;;5052081;28;20455;-78
2023/04/18 05:41:23;;;;;;;681.80;642.60;;;6.00;99.90;;;;;;5052293;28;20486;-78
2023/04/18 05:43:50;;;;;;;619.10;586.57;;;6.20;99.90;;;;;;5051800;28;20471;-78
2023/04/18 05:46:19;;;;;;;477.60;455.17;;;6.30;99.90;;;;;;5051709;28;20454;-78
2023/04/18 05:48:46;;;;;;;391.30;373.27;;;6.50;99.90;;;;;;5051891;28;20481;-78
2023/04/18 05:51:16;;;;;;;316.20;302.10;;;6.60;99.90;;;;;;5051729;28;20491;-79
2023/04/18 05:53:43;;;;;;;261.57;250.33;;;6.70;99.90;;;;;;5051305;28;20503;-79
2023/04/18 05:56:10;;;;;;;206.03;196.73;;;6.80;99.90;;;;;;5051557;28;20475;-79
2023/04/18 05:58:36;;;;;;;156.63;149.33;;;7.00;99.90;;;;;;5051679;28;20463;-79
2023/04/18 06:01:03;;;;;;;104.67;99.23;;;7.00;99.90;;;;;;5051544;28;20458;-79
2023/04/18 06:03:32;;;;;;;72.47;67.93;;;7.10;99.90;;;;;;5049536;28;20471;-79
2023/04/18 06:05:58;;;;;;;52.63;48.50;;;7.20;99.90;;;;;;5050509;28;20451;-79
2023/04/18 06:08:26;;;;;;;45.80;42.23;;;7.40;99.90;;;;;;5050828;28;20554;-78
2023/04/18 06:10:53;;;;;;;46.03;42.50;;;7.40;99.90;;;;;;5051178;28;20534;-79
2023/04/18 06:13:19;;;;;;;42.80;39.23;;;7.50;99.90;;;;;;5050880;28;20487;-79
2023/04/18 06:15:46;;;;;;;37.60;34.50;;;7.60;99.90;;;;;;5051150;28;20479;-81
2023/04/18 06:18:13;;;;;;;36.97;33.33;;;7.70;99.90;;;;;;5051261;28;20455;-79
2023/04/18 06:20:43;;;;;;;29.17;24.80;;;7.80;99.90;;;;;;5051194;28;20447;-79
2023/04/18 06:23:10;;;;;;;25.43;20.40;;;7.90;99.90;;;;;;5051163;28;20468;-79
2023/04/18 06:25:40;;;;;;;27.30;21.40;;;8.10;99.90;;;;;;5050746;28;20465;-79
2023/04/18 06:28:07;;;;;;;22.07;18.57;;;8.30;99.90;;;;;;5051019;28;20538;-79
2023/04/18 06:30:34;;;;;;;22.33;17.07;;;8.70;99.90;;;;;;5051283;28;20455;-78
2023/04/18 06:33:02;;;;;;;23.63;15.10;;;9.10;99.90;;;;;;5050669;28;20501;-79
2023/04/18 06:35:36;;;;;;;21.98;13.55;;;9.20;99.90;;;;;;5050262;28;20805;-81
2023/04/18 06:38:04;;;;;;;18.90;12.43;;;9.60;99.90;;;;;;5049409;28;20233;-81
2023/04/18 06:40:31;;;;;;;21.83;11.83;;;9.70;99.90;;;;;;5050396;28;20474;-80
2023/04/18 06:43:01;;;;;;;19.80;12.53;;;9.70;99.90;;;;;;5050599;28;21007;-80
2023/04/18 06:45:29;;;;;;;21.87;11.40;;;9.70;98.30;;;;;;5050203;28;20451;-81
2023/04/18 06:47:58;;;;;;;16.53;10.33;;;9.70;97.90;;;;;;5051013;28;20451;-80
2023/04/18 06:50:27;;;;;;;21.77;11.37;;;9.70;97.90;;;;;;5050794;28;20487;-81
2023/04/18 06:52:53;;;;;;;17.90;9.97;;;9.70;97.90;;;;;;5050747;28;20458;-81
2023/04/18 06:55:22;;;;;;;18.93;11.60;;;9.70;97.90;;;;;;5051089;28;20538;-79
2023/04/18 06:57:51;;;;;;;16.90;11.13;;;9.70;96.20;;;;;;5050187;28;20506;-80
2023/04/18 07:00:19;;;;;;;18.67;11.53;;;9.60;96.00;;;;;;5050046;28;20459;-81
2023/04/18 07:02:48;;;;;;;17.03;10.77;;;9.50;96.10;;;;;;5042227;28;20452;-79
2023/04/18 07:05:18;;;;;;;16.57;10.00;;;9.40;94.50;;;;;;5034276;28;20486;-80
2023/04/18 07:07:45;;;;;;;17.90;10.10;;;9.50;95.30;;;;;;5033521;28;20463;-80
2023/04/18 07:10:15;;;;;;;17.43;9.90;;;9.60;95.90;;;;;;5032640;28;20509;-80
2023/04/18 07:12:46;;;;;;;16.20;9.10;;;9.50;94.90;;;;;;5033937;28;20594;-80
2023/04/18 07:15:18;;;;;;;14.67;9.93;;;9.50;94.30;;;;;;5034173;28;20980;-80
2023/04/18 07:17:44;;;;;;;17.53;10.67;;;9.50;93.60;;;;;;5034024;28;20475;-80
2023/04/18 07:20:15;;;;;;;15.07;8.90;;;9.70;96.40;;;;;;5034640;28;20813;-80
2023/04/18 07:22:46;;;;;;;15.87;9.30;;;9.70;94.90;;;;;;5034585;28;20452;-80
2023/04/18 07:25:13;;;;;;;8.30;4.87;;;9.70;96.30;;;;;;5032028;28;20467;-80
2023/04/18 07:27:40;;;;;;;12.77;8.07;;;9.60;95.30;;;;;;5034089;28;20644;-80
2023/04/18 07:30:14;;;;;;;14.80;9.93;;;9.50;94.70;;;;;;5034077;28;21011;-80
2023/04/18 07:32:43;;;;;;;13.00;8.93;;;9.50;94.30;;;;;;5033997;28;20474;-80
2023/04/18 07:35:12;;;;;;;17.10;8.87;;;9.60;93.10;;;;;;5034031;28;20464;-80
2023/04/18 07:37:42;;;;;;;13.30;7.33;;;9.80;94.70;;;;;;5033925;28;20479;-80
2023/04/18 07:40:12;;;;;;;16.77;8.00;;;9.90;92.70;;;;;;5034633;28;20454;-80
2023/04/18 07:42:42;;;;;;;12.93;7.00;;;10.10;90.50;;;;;;5034265;28;20447;-77
2023/04/18 07:45:20;;;;;;;11.27;6.60;;;10.30;91.10;;;;;;5033689;28;20459;-77
2023/04/18 07:47:47;;;;;;;22.73;7.20;;;10.40;90.30;;;;;;5034176;28;20538;-78
2023/04/18 07:50:16;;;;;;;9.63;5.40;;;10.60;91.20;;;;;;5032873;28;20542;-80
2023/04/18 07:52:46;;;;;;;10.00;6.20;;;10.80;87.50;;;;;;5034023;28;20456;-78
2023/04/18 07:55:19;;;;;;;10.77;6.13;;;10.90;84.40;;;;;;5034542;28;20982;-78
2023/04/18 07:57:49;;;;;;;10.57;6.10;;;10.90;82.80;;;;;;5033745;28;20476;-79
2023/04/18 08:00:20;;;;;;;10.73;5.93;;;11.20;85.80;;;;;;5033050;28;20506;-79
2023/04/18 08:02:50;;;;;;;12.60;5.80;;;11.30;80.00;;;;;;5036480;28;21019;-79
2023/04/18 08:05:27;;;;;;;12.37;6.90;;;11.50;83.80;;;;;;5033572;28;20539;-82
2023/04/18 08:07:54;;;;;;;10.13;6.63;;;11.50;83.20;;;;;;5033538;28;20502;-79
2023/04/18 08:10:26;;;;;;;14.88;7.85;;;11.50;83.60;;;;;;5032996;28;20532;-79
2023/04/18 08:12:53;;;;;;;12.93;8.80;;;11.80;85.10;;;;;;5033544;28;20724;-79
2023/04/18 08:15:21;;;;;;;12.45;6.85;;;11.90;85.10;;;;;;5033951;28;20459;-79
2023/04/18 08:17:48;;;;;;;12.00;7.17;;;11.80;83.30;;;;;;5033607;28;20486;-79
2023/04/18 08:20:17;;;;;;;10.00;6.87;;;11.40;81.60;;;;;;5034149;28;20838;-79
2023/04/18 08:22:44;;;;;;;19.83;8.30;;;11.00;83.20;;;;;;5033696;28;20539;-80
2023/04/18 08:25:16;;;;;;;10.87;7.53;;;11.00;83.80;;;;;;5033896;28;20471;-80
2023/04/18 08:27:44;;;;;;;13.13;6.70;;;11.00;86.30;;;;;;5033593;28;20452;-80
2023/04/18 08:32:41;;;;;;;10.30;5.87;;;10.80;85.50;;;;;;5118954;22;20560;-82
2023/04/18 08:35:08;;;;;;;11.97;7.07;;;10.90;86.80;;;;;;5093438;28;20459;-82
2023/04/18 08:37:35;;;;;;;8.80;6.10;;;11.40;85.90;;;;;;5091483;28;20893;-82
2023/04/18 08:40:06;;;;;;;10.57;7.47;;;11.50;83.40;;;;;;5093363;28;20481;-82
2023/04/18 08:42:34;;;;;;;12.10;7.50;;;11.70;81.00;;;;;;5093185;28;20807;-82
2023/04/18 08:45:01;;;;;;;12.37;6.70;;;11.80;82.50;;;;;;5093124;28;20481;-82
2023/04/18 08:47:29;;;;;;;10.27;6.50;;;12.10;82.00;;;;;;5092794;28;20531;-83
2023/04/18 08:49:58;;;;;;;10.77;6.37;;;12.30;81.30;;;;;;5093305;28;20515;-82
2023/04/18 08:52:27;;;;;;;10.27;6.70;;;12.40;79.10;;;;;;5091753;28;20877;-82
2023/04/18 08:54:54;;;;;;;10.27;6.53;;;12.60;80.90;;;;;;5092795;28;20473;-82
2023/04/18 08:57:25;;;;;;;11.03;7.30;;;12.60;77.90;;;;;;5092748;28;20567;-82
2023/04/18 08:59:54;;;;;;;12.10;6.90;;;12.50;81.00;;;;;;5092607;28;20454;-82
2023/04/18 09:02:22;;;;;;;12.23;6.97;;;12.40;79.00;;;;;;5092744;28;20453;-82
2023/04/18 09:04:51;;;;;;;11.40;6.90;;;12.40;79.20;;;;;;5093001;28;20469;-82
2023/04/18 09:07:27;;;;;;;12.07;6.60;;;12.00;78.00;;;;;;5092502;28;20446;-82
2023/04/18 09:09:56;;;;;;;12.93;8.40;;;12.00;78.80;;;;;;5092868;28;20452;-82
2023/04/18 09:12:25;;;;;;;10.90;7.10;;;12.10;80.70;;;;;;5092539;28;20449;-83
2023/04/18 09:14:56;;;;;;;11.00;7.70;;;12.10;82.50;;;;;;5092690;28;20664;-82
2023/04/18 09:17:35;;;;;;;13.87;8.20;;;11.90;79.60;;;;;;5092196;28;20481;-82
2023/04/18 09:20:04;;;;;;;10.07;7.40;;;11.90;79.30;;;;;;5092229;28;20453;-82
2023/04/18 09:22:47;;;;;;;17.53;9.30;;;11.90;80.40;;;;;;5092550;28;20450;-82
2023/04/18 09:25:26;;;;;;;12.30;7.97;;;11.80;80.00;;;;;;5091803;28;20538;-82
2023/04/18 09:27:53;;;;;;;11.90;7.60;;;11.70;80.00;;;;;;5092283;28;20449;-83
2023/04/18 09:30:50;;;;;;;11.83;6.63;;;12.00;79.00;;;;;;5092441;28;20836;-83
2023/04/18 09:33:17;;;;;;;13.20;6.43;;;12.00;79.60;;;;;;5090561;28;20489;-83
2023/04/18 09:35:44;;;;;;;12.43;7.67;;;12.10;78.90;;;;;;5092192;28;20457;-82
2023/04/18 09:38:12;;;;;;;13.30;8.40;;;11.80;78.60;;;;;;5092094;28;21001;-83
2023/04/18 09:40:39;;;;;;;13.10;7.60;;;12.00;80.20;;;;;;5092427;28;20454;-82
2023/04/18 09:43:19;;;;;;;13.27;8.77;;;12.10;78.90;;;;;;5092104;28;20469;-82
2023/04/18 09:45:50;;;;;;;13.43;7.00;;;12.20;78.90;;;;;;5091962;28;20826;-82
2023/04/18 09:48:17;;;;;;;16.80;7.47;;;12.20;78.40;;;;;;5092154;28;20979;-82
2023/04/18 09:50:46;;;;;;;11.97;6.53;;;12.10;78.00;;;;;;5092099;28;20545;-82
2023/04/18 09:53:18;;;;;;;12.37;7.23;;;12.00;79.60;;;;;;5092255;28;20469;-82
2023/04/18 09:55:47;;;;;;;14.27;8.90;;;12.20;78.90;;;;;;5091854;28;20948;-83
2023/04/18 09:58:14;;;;;;;13.90;8.70;;;12.10;78.90;;;;;;5091586;28;20474;-82
2023/04/18 10:00:41;;;;;;;17.57;9.13;;;12.30;79.00;;;;;;5091989;28;20540;-82
2023/04/18 10:03:10;;;;;;;17.63;9.87;;;12.30;79.00;;;;;;5091655;28;21004;-82
2023/04/18 10:05:39;;;;;;;12.40;8.33;;;12.70;79.40;;;;;;5090905;28;20449;-82
2023/04/18 10:08:08;;;;;;;14.13;8.30;;;12.90;78.80;;;;;;5091258;28;20446;-82
2023/04/18 10:10:37;;;;;;;12.37;7.77;;;12.90;77.80;;;;;;5091113;28;20455;-82
2023/04/18 10:13:07;;;;;;;13.00;7.90;;;13.10;74.20;;;;;;5091744;28;20473;-81
2023/04/18 10:15:34;;;;;;;13.03;7.20;;;13.80;76.80;;;;;;5091618;28;20944;-81
2023/04/18 10:18:02;;;;;;;14.53;7.23;;;13.90;72.00;;;;;;5091682;28;20508;-81
2023/04/18 10:20:31;;;;;;;11.53;6.53;;;13.70;72.20;;;;;;5091702;28;20457;-81
2023/04/18 10:22:59;;;;;;;11.50;6.53;;;13.60;72.40;;;;;;5091143;28;20469;-81
2023/04/18 10:25:50;;;;;;;13.63;7.17;;;13.90;70.50;;;;;;5090911;28;20478;-81
2023/04/18 10:28:19;;;;;;;11.33;6.80;;;13.30;69.80;;;;;;5091628;28;20458;-81
2023/04/18 10:30:55;;;;;;;17.60;7.90;;;13.50;75.00;;;;;;5091642;28;20454;-81
2023/04/18 10:33:36;;;;;;;10.67;6.10;;;13.60;73.70;;;;;;5090200;28;20487;-81
2023/04/18 10:36:15;;;;;;;12.60;7.20;;;14.00;72.70;;;;;;5091896;28;20460;-81
2023/04/18 10:38:46;;;;;;;14.80;7.53;;;14.20;69.40;;;;;;5094248;28;20485;-81
2023/04/18 10:41:20;;;;;;;12.47;7.13;;;15.10;68.40;;;;;;5095699;28;20454;-81
2023/04/18 10:44:17;;;;;;;13.13;7.10;;;15.70;64.20;;;;;;5095461;28;20476;-81
2023/04/18 10:47:18;;;;;;;14.70;7.90;;;15.90;63.10;;;;;;5095084;28;20509;-81
2023/04/18 10:49:56;;;;;;;13.53;6.77;;;15.50;64.10;;;;;;5095401;28;20458;-81
2023/04/18 10:52:23;;;;;;;11.47;7.00;;;15.00;65.20;;;;;;5095301;28;20458;-81
2023/04/18 10:54:53;;;;;;;12.97;7.30;;;14.90;63.20;;;;;;5095484;28;20470;-81
2023/04/18 10:57:23;;;;;;;14.90;6.70;;;14.80;62.60;;;;;;5094482;28;20470;-81
2023/04/18 10:59:53;;;;;;;13.70;6.30;;;15.10;65.70;;;;;;5094537;28;20990;-82
2023/04/18 11:02:25;;;;;;;12.60;6.43;;;16.00;62.40;;;;;;5094168;28;20491;-81
2023/04/18 11:04:54;;;;;;;14.47;8.57;;;15.70;61.10;;;;;;5093044;28;20488;-81
2023/04/18 11:07:32;;;;;;;11.53;7.13;;;14.90;60.30;;;;;;5092816;28;20452;-80
2023/04/18 11:09:59;;;;;;;14.40;8.30;;;15.00;65.60;;;;;;5093333;28;20462;-80
2023/04/18 11:12:31;;;;;;;14.30;8.10;;;15.00;65.60;;;;;;5093241;28;20463;-81
2023/04/18 11:15:00;;;;;;;16.77;10.30;;;15.10;65.60;;;;;;5094183;28;20562;-81
2023/04/18 11:17:31;;;;;;;17.23;8.00;;;14.70;65.30;;;;;;5084184;28;20553;-80
2023/04/18 11:20:04;;;;;;;13.40;7.67;;;14.70;66.90;;;;;;5073576;28;20459;-80
2023/04/18 11:22:31;;;;;;;13.37;6.60;;;14.70;65.30;;;;;;5073476;28;20478;-81
2023/04/18 11:24:59;;;;;;;19.50;10.30;;;14.80;65.40;;;;;;5073268;28;20572;-81
2023/04/18 11:27:29;;;;;;;10.63;6.43;;;14.70;68.40;;;;;;5072299;28;20450;-80
2023/04/18 11:29:57;;;;;;;10.60;6.90;;;15.30;65.80;;;;;;5072597;28;20454;-80
2023/04/18 11:32:24;;;;;;;9.57;3.83;;;16.50;66.90;;;;;;5072179;28;20606;-80
2023/04/18 11:34:54;;;;;;;13.70;7.43;;;16.70;59.00;;;;;;5072600;28;20729;-85
2023/04/18 11:37:20;;;;;;;14.90;9.53;;;18.00;57.50;;;;;;5071004;28;20453;-80
2023/04/18 11:39:48;;;;;;;18.30;9.67;;;17.90;54.10;;;;;;5073542;28;20452;-81
2023/04/18 11:42:20;;;;;;;13.30;8.60;;;18.80;53.40;;;;;;5073979;28;20837;-81
2023/04/18 11:44:48;;;;;;;16.93;8.80;;;18.90;49.60;;;;;;5072743;28;21003;-81
2023/04/18 11:47:25;;;;;;;13.30;8.97;;;18.00;48.40;;;;;;5072490;28;20456;-81
2023/04/18 11:49:57;;;;;;;14.63;8.60;;;17.60;51.00;;;;;;5072770;28;20491;-81
2023/04/18 11:52:25;;;;;;;12.77;8.10;;;16.40;53.90;;;;;;5073216;28;20472;-81
2023/04/18 11:54:52;;;;;;;15.60;8.13;;;16.70;53.10;;;;;;5073081;28;20572;-82
2023/04/18 11:57:21;;;;;;;15.93;8.63;;;16.20;53.90;;;;;;5072833;28;20455;-82
2023/04/18 11:59:51;;;;;;;13.80;8.00;;;16.20;57.70;;;;;;5073389;28;20457;-81
2023/04/18 12:02:21;;;;;;;16.93;8.87;;;16.40;56.00;;;;;;5073352;28;20456;-81
2023/04/18 12:04:56;;;;;;;16.50;9.93;;;16.30;58.40;;;;;;5071430;28;20505;-81
2023/04/18 12:07:31;;;;;;;10.50;7.07;;;16.40;58.50;;;;;;5071883;28;20458;-81
2023/04/18 12:09:58;;;;;;;17.30;9.10;;;17.10;54.20;;;;;;5072789;28;20459;-81
2023/04/18 12:12:25;;;;;;;13.60;9.00;;;17.70;52.80;;;;;;5073017;28;20841;-81
2023/04/18 12:15:03;;;;;;;15.30;7.27;;;17.70;54.50;;;;;;5072608;28;20471;-80
2023/04/18 12:17:31;;;;;;;13.37;8.93;;;17.70;52.10;;;;;;5072883;28;20952;-80
2023/04/18 12:20:05;;;;;;;17.27;9.80;;;16.80;50.20;;;;;;5072917;28;20969;-79
2023/04/18 12:22:40;;;;;;;17.00;9.43;;;17.50;53.70;;;;;;5071548;28;20451;-81
2023/04/18 12:25:21;;;;;;;14.67;8.23;;;17.90;52.40;;;;;;5072732;28;20553;-79
2023/04/18 12:27:57;;;;;;;15.00;9.57;;;17.80;50.70;;;;;;5072443;28;21001;-80
2023/04/18 12:30:27;;;;;;;17.10;8.00;;;17.10;51.00;;;;;;5071350;28;20510;-79
2023/04/18 12:32:57;;;;;;;15.50;9.40;;;16.60;52.30;;;;;;5070975;28;20928;-79
2023/04/18 12:35:25;;;;;;;14.77;8.40;;;17.00;55.40;;;;;;5072944;28;20457;-81
2023/04/18 12:37:54;;;;;;;15.10;8.13;;;17.00;54.60;;;;;;5070799;28;20461;-81
2023/04/18 12:40:22;;;;;;;15.60;9.13;;;17.50;54.00;;;;;;5072736;28;20489;-80
2023/04/18 12:42:50;;;;;;;16.93;7.33;;;18.10;51.40;;;;;;5071875;28;20462;-80
2023/04/18 12:45:18;;;;;;;13.67;7.10;;;18.10;48.70;;;;;;5071265;28;20452;-80
2023/04/18 12:47:48;;;;;;;16.53;10.30;;;18.30;48.60;;;;;;5071269;28;20479;-79
2023/04/18 12:50:17;;;;;;;15.80;8.53;;;18.00;51.40;;;;;;5071888;28;20457;-81
2023/04/18 12:52:44;;;;;;;13.50;8.97;;;17.90;48.60;;;;;;5072112;28;20458;-80
2023/04/18 12:55:12;;;;;;;12.07;7.87;;;17.50;50.90;;;;;;5072369;28;20457;-81
2023/04/18 12:57:39;;;;;;;15.27;7.00;;;17.30;53.50;;;;;;5070766;28;20452;-80
2023/04/18 13:00:09;;;;;;;13.10;7.93;;;16.80;53.60;;;;;;5071122;28;20452;-80
2023/04/18 13:02:37;;;;;;;13.93;9.80;;;16.60;54.30;;;;;;5070232;28;20722;-81
2023/04/18 13:05:20;;;;;;;17.70;9.10;;;16.60;57.70;;;;;;5069578;28;20458;-80
2023/04/18 13:07:48;;;;;;;17.33;8.60;;;16.80;56.80;;;;;;5070639;28;20454;-81
2023/04/18 13:10:18;;;;;;;16.67;8.60;;;16.60;58.70;;;;;;5071713;28;20451;-79
2023/04/18 13:12:46;;;;;;;15.13;9.13;;;16.30;59.30;;;;;;5071450;28;20454;-80
2023/04/18 13:15:13;;;;;;;14.03;9.20;;;16.20;57.40;;;;;;5072152;28;20847;-81
2023/04/18 13:17:42;;;;;;;18.70;10.87;;;16.00;58.10;;;;;;5070526;28;20459;-79
2023/04/18 13:20:12;;;;;;;15.57;9.33;;;15.80;58.00;;;;;;5071897;28;20461;-79